sensor_id;sensor_type;location;lat;lon;timestamp;pressure;altitude;pressure_sealevel;temperature;humidity
38289;BME280;24092;53.370;-6.588;2023-02-18T00:00:31;101047.56;;;4.46;100.00
38289;BME280;24092;53.370;-6.588;2023-02-18T00:02:58;101051.90;;;4.77;100.00
38289;BME280;24092;53.370;-6.588;2023-02-18T00:05:25;101047.47;;;4.63;100.00
38289;BME280;24092;53.370;-6.588;2023-02-18T00:07:54;101052.55;;;4.89;100.00
38289;BME280;24092;53.370;-6.588;2023-02-18T00:10:21;101045.99;;;4.89;100.00
38289;BME280;24092;53.370;-6.588;2023-02-18T00:12:48;101040.58;;;4.63;100.00
38289;BME280;24092;53.370;-6.588;2023-02-18T00:15:14;101037.70;;;4.79;100.00
38289;BME280;24092;53.370;-6.588;2023-02-18T00:17:41;101033.14;;;5.18;100.00
38289;BME280;24092;53.370;-6.588;2023-02-18T00:20:09;101029.06;;;4.91;100.00
38289;BME280;24092;53.370;-6.588;2023-02-18T00:22:36;101028.22;;;4.50;100.00
38289;BME280;24092;53.370;-6.588;2023-02-18T00:25:03;101028.22;;;4.42;100.00
38289;BME280;24092;53.370;-6.588;2023-02-18T00:27:31;101025.46;;;4.79;100.00
38289;BME280;24092;53.370;-6.588;2023-02-18T00:29:58;101025.67;;;4.26;100.00
38289;BME280;24092;53.370;-6.588;2023-02-18T00:32:25;101025.99;;;4.67;100.00
38289;BME280;24092;53.370;-6.588;2023-02-18T00:34:53;101027.09;;;4.12;100.00
38289;BME280;24092;53.370;-6.588;2023-02-18T00:37:20;101032.09;;;4.27;100.00
38289;BME280;24092;53.370;-6.588;2023-02-18T00:39:47;101033.87;;;4.42;100.00
38289;BME280;24092;53.370;-6.588;2023-02-18T00:42:15;101029.95;;;4.90;100.00
38289;BME280;24092;53.370;-6.588;2023-02-18T00:44:41;101032.45;;;4.80;100.00
38289;BME280;24092;53.370;-6.588;2023-02-18T00:47:08;101037.07;;;4.23;100.00
38289;BME280;24092;53.370;-6.588;2023-02-18T00:49:36;101039.81;;;4.46;100.00
38289;BME280;24092;53.370;-6.588;2023-02-18T00:52:03;101033.70;;;4.55;100.00
38289;BME280;24092;53.370;-6.588;2023-02-18T00:54:30;101038.41;;;4.31;100.00
38289;BME280;24092;53.370;-6.588;2023-02-18T00:56:57;101035.84;;;4.39;100.00
38289;BME280;24092;53.370;-6.588;2023-02-18T00:59:24;101034.32;;;4.66;100.00
38289;BME280;24092;53.370;-6.588;2023-02-18T01:01:51;101031.61;;;4.45;100.00
38289;BME280;24092;53.370;-6.588;2023-02-18T01:04:18;101030.99;;;4.15;100.00
38289;BME280;24092;53.370;-6.588;2023-02-18T01:06:45;101030.63;;;4.22;100.00
38289;BME280;24092;53.370;-6.588;2023-02-18T01:09:12;101029.55;;;4.56;100.00
38289;BME280;24092;53.370;-6.588;2023-02-18T01:11:39;101024.33;;;4.32;100.00
38289;BME280;24092;53.370;-6.588;2023-02-18T01:14:06;101020.37;;;4.53;100.00
38289;BME280;24092;53.370;-6.588;2023-02-18T01:16:33;101017.49;;;4.91;100.00
38289;BME280;24092;53.370;-6.588;2023-02-18T01:19:00;101015.98;;;4.38;100.00
38289;BME280;24092;53.370;-6.588;2023-02-18T01:21:27;101016.85;;;4.77;100.00
38289;BME280;24092;53.370;-6.588;2023-02-18T01:23:55;101017.14;;;4.36;100.00
38289;BME280;24092;53.370;-6.588;2023-02-18T01:26:22;101027.08;;;4.37;100.00
38289;BME280;24092;53.370;-6.588;2023-02-18T01:28:48;101026.91;;;4.70;100.00
38289;BME280;24092;53.370;-6.588;2023-02-18T01:31:16;101021.15;;;4.73;100.00
38289;BME280;24092;53.370;-6.588;2023-02-18T01:33:43;101015.29;;;4.84;100.00
38289;BME280;24092;53.370;-6.588;2023-02-18T01:36:11;101016.64;;;4.35;100.00
38289;BME280;24092;53.370;-6.588;2023-02-18T01:38:38;101020.33;;;4.68;100.00
38289;BME280;24092;53.370;-6.588;2023-02-18T01:41:06;101019.67;;;4.64;100.00
38289;BME280;24092;53.370;-6.588;2023-02-18T01:43:33;101028.81;;;4.27;100.00
38289;BME280;24092;53.370;-6.588;2023-02-18T01:46:09;101027.37;;;4.51;100.00
38289;BME280;24092;53.370;-6.588;2023-02-18T01:48:41;101030.51;;;4.59;100.00
38289;BME280;24092;53.370;-6.588;2023-02-18T01:51:12;101040.32;;;4.95;100.00
38289;BME280;24092;53.370;-6.588;2023-02-18T01:53:46;101037.21;;;4.69;100.00
38289;BME280;24092;53.370;-6.588;2023-02-18T01:56:22;101034.67;;;4.87;100.00
38289;BME280;24092;53.370;-6.588;2023-02-18T01:58:51;101035.78;;;4.50;100.00
38289;BME280;24092;53.370;-6.588;2023-02-18T02:01:20;101040.11;;;4.96;100.00
38289;BME280;24092;53.370;-6.588;2023-02-18T02:03:47;101043.97;;;4.70;100.00
38289;BME280;24092;53.370;-6.588;2023-02-18T02:06:17;101042.51;;;4.90;100.00
38289;BME280;24092;53.370;-6.588;2023-02-18T02:08:48;101042.05;;;4.88;100.00
38289;BME280;24092;53.370;-6.588;2023-02-18T02:11:23;101039.72;;;4.86;100.00
38289;BME280;24092;53.370;-6.588;2023-02-18T02:14:06;101041.71;;;4.98;100.00
38289;BME280;24092;53.370;-6.588;2023-02-18T02:16:41;101041.84;;;5.06;100.00
38289;BME280;24092;53.370;-6.588;2023-02-18T02:19:33;101037.37;;;4.98;100.00
38289;BME280;24092;53.370;-6.588;2023-02-18T02:22:54;101036.66;;;4.48;100.00
38289;BME280;24092;53.370;-6.588;2023-02-18T02:25:46;101041.39;;;5.22;100.00
38289;BME280;24092;53.370;-6.588;2023-02-18T02:29:03;101036.67;;;5.09;100.00
38289;BME280;24092;53.370;-6.588;2023-02-18T02:34:22;101042.55;;;7.13;100.00
38289;BME280;24092;53.370;-6.588;2023-02-18T02:36:56;101043.11;;;5.46;100.00
38289;BME280;24092;53.370;-6.588;2023-02-18T02:39:33;101032.23;;;4.88;100.00
38289;BME280;24092;53.370;-6.588;2023-02-18T02:42:08;101029.12;;;5.26;100.00
38289;BME280;24092;53.370;-6.588;2023-02-18T02:44:45;101027.78;;;5.27;100.00
38289;BME280;24092;53.370;-6.588;2023-02-18T02:47:20;101031.35;;;5.08;100.00
38289;BME280;24092;53.370;-6.588;2023-02-18T02:49:56;101046.66;;;5.22;100.00
38289;BME280;24092;53.370;-6.588;2023-02-18T02:52:29;101044.07;;;5.20;100.00
38289;BME280;24092;53.370;-6.588;2023-02-18T02:54:58;101055.95;;;5.24;100.00
38289;BME280;24092;53.370;-6.588;2023-02-18T02:57:45;101059.18;;;5.50;100.00
38289;BME280;24092;53.370;-6.588;2023-02-18T03:00:15;101060.11;;;5.49;100.00
38289;BME280;24092;53.370;-6.588;2023-02-18T03:02:56;101071.87;;;5.67;100.00
38289;BME280;24092;53.370;-6.588;2023-02-18T03:05:37;101066.28;;;5.78;100.00
38289;BME280;24092;53.370;-6.588;2023-02-18T03:08:18;101060.18;;;6.16;100.00
38289;BME280;24092;53.370;-6.588;2023-02-18T03:10:55;101066.48;;;6.18;100.00
38289;BME280;24092;53.370;-6.588;2023-02-18T03:13:34;101065.75;;;5.90;100.00
38289;BME280;24092;53.370;-6.588;2023-02-18T03:16:13;101073.07;;;5.93;100.00
38289;BME280;24092;53.370;-6.588;2023-02-18T03:18:50;101071.36;;;5.43;100.00
38289;BME280;24092;53.370;-6.588;2023-02-18T03:21:24;101071.60;;;5.19;100.00
38289;BME280;24092;53.370;-6.588;2023-02-18T03:23:55;101067.40;;;4.92;100.00
38289;BME280;24092;53.370;-6.588;2023-02-18T03:26:24;101073.58;;;5.43;100.00
38289;BME280;24092;53.370;-6.588;2023-02-18T03:28:53;101053.01;;;5.46;100.00
38289;BME280;24092;53.370;-6.588;2023-02-18T03:31:25;101063.98;;;5.09;100.00
38289;BME280;24092;53.370;-6.588;2023-02-18T03:33:58;101063.57;;;4.93;100.00
38289;BME280;24092;53.370;-6.588;2023-02-18T03:36:28;101069.85;;;4.98;100.00
38289;BME280;24092;53.370;-6.588;2023-02-18T03:38:59;101069.27;;;5.01;100.00
38289;BME280;24092;53.370;-6.588;2023-02-18T03:41:26;101064.61;;;4.93;100.00
38289;BME280;24092;53.370;-6.588;2023-02-18T03:43:58;101068.09;;;4.99;100.00
38289;BME280;24092;53.370;-6.588;2023-02-18T03:46:26;101066.58;;;4.58;100.00
38289;BME280;24092;53.370;-6.588;2023-02-18T03:48:54;101063.46;;;4.73;100.00
38289;BME280;24092;53.370;-6.588;2023-02-18T03:51:22;101076.50;;;5.09;100.00
38289;BME280;24092;53.370;-6.588;2023-02-18T03:53:49;101075.79;;;4.93;100.00
38289;BME280;24092;53.370;-6.588;2023-02-18T03:56:16;101083.79;;;4.52;100.00
38289;BME280;24092;53.370;-6.588;2023-02-18T03:58:44;101082.24;;;4.76;100.00
38289;BME280;24092;53.370;-6.588;2023-02-18T04:01:11;101088.36;;;4.23;100.00
38289;BME280;24092;53.370;-6.588;2023-02-18T04:03:38;101078.21;;;4.42;100.00
38289;BME280;24092;53.370;-6.588;2023-02-18T04:06:06;101074.69;;;4.43;100.00
38289;BME280;24092;53.370;-6.588;2023-02-18T04:08:35;101079.24;;;4.32;100.00
38289;BME280;24092;53.370;-6.588;2023-02-18T04:11:02;101080.40;;;4.63;100.00
38289;BME280;24092;53.370;-6.588;2023-02-18T04:13:29;101077.92;;;4.07;100.00
38289;BME280;24092;53.370;-6.588;2023-02-18T04:15:56;101072.90;;;4.34;100.00
38289;BME280;24092;53.370;-6.588;2023-02-18T04:18:23;101065.14;;;4.71;100.00
38289;BME280;24092;53.370;-6.588;2023-02-18T04:20:50;101060.66;;;5.03;100.00
38289;BME280;24092;53.370;-6.588;2023-02-18T04:23:18;101051.36;;;4.65;100.00
38289;BME280;24092;53.370;-6.588;2023-02-18T04:25:45;101054.79;;;5.26;100.00
38289;BME280;24092;53.370;-6.588;2023-02-18T04:28:13;101054.75;;;4.73;100.00
38289;BME280;24092;53.370;-6.588;2023-02-18T04:30:41;101053.53;;;4.95;100.00
38289;BME280;24092;53.370;-6.588;2023-02-18T04:33:08;101050.79;;;4.26;100.00
38289;BME280;24092;53.370;-6.588;2023-02-18T04:35:36;101066.95;;;4.49;100.00
38289;BME280;24092;53.370;-6.588;2023-02-18T04:38:03;101059.49;;;4.80;100.00
38289;BME280;24092;53.370;-6.588;2023-02-18T04:40:31;101056.88;;;4.46;100.00
38289;BME280;24092;53.370;-6.588;2023-02-18T04:42:58;101058.97;;;4.46;100.00
38289;BME280;24092;53.370;-6.588;2023-02-18T04:45:27;101059.94;;;4.46;100.00
38289;BME280;24092;53.370;-6.588;2023-02-18T04:47:54;101061.56;;;4.27;100.00
38289;BME280;24092;53.370;-6.588;2023-02-18T04:50:22;101056.90;;;4.53;100.00
38289;BME280;24092;53.370;-6.588;2023-02-18T04:52:49;101048.41;;;4.70;100.00
38289;BME280;24092;53.370;-6.588;2023-02-18T04:55:16;101048.35;;;4.45;100.00
38289;BME280;24092;53.370;-6.588;2023-02-18T04:57:43;101055.59;;;4.31;100.00
38289;BME280;24092;53.370;-6.588;2023-02-18T05:00:15;101059.30;;;4.37;100.00
38289;BME280;24092;53.370;-6.588;2023-02-18T05:02:42;101055.99;;;4.54;100.00
38289;BME280;24092;53.370;-6.588;2023-02-18T05:05:09;101056.29;;;5.06;100.00
38289;BME280;24092;53.370;-6.588;2023-02-18T05:07:37;101054.64;;;4.72;100.00
38289;BME280;24092;53.370;-6.588;2023-02-18T05:10:05;101058.76;;;4.25;100.00
38289;BME280;24092;53.370;-6.588;2023-02-18T05:12:32;101059.54;;;4.90;100.00
38289;BME280;24092;53.370;-6.588;2023-02-18T05:14:59;101065.31;;;4.84;100.00
38289;BME280;24092;53.370;-6.588;2023-02-18T05:17:26;101057.81;;;4.66;100.00
38289;BME280;24092;53.370;-6.588;2023-02-18T05:19:53;101065.27;;;4.42;100.00
38289;BME280;24092;53.370;-6.588;2023-02-18T05:22:20;101060.75;;;4.34;100.00
38289;BME280;24092;53.370;-6.588;2023-02-18T05:24:47;101058.76;;;4.49;100.00
38289;BME280;24092;53.370;-6.588;2023-02-18T05:27:14;101056.40;;;4.46;100.00
38289;BME280;24092;53.370;-6.588;2023-02-18T05:29:41;101054.04;;;4.46;100.00
38289;BME280;24092;53.370;-6.588;2023-02-18T05:32:08;101052.86;;;4.70;100.00
38289;BME280;24092;53.370;-6.588;2023-02-18T05:34:36;101050.99;;;5.03;100.00
38289;BME280;24092;53.370;-6.588;2023-02-18T05:37:03;101055.22;;;4.12;100.00
38289;BME280;24092;53.370;-6.588;2023-02-18T05:39:30;101055.63;;;4.31;100.00
38289;BME280;24092;53.370;-6.588;2023-02-18T05:41:57;101062.62;;;4.91;100.00
38289;BME280;24092;53.370;-6.588;2023-02-18T05:44:24;101063.39;;;4.04;100.00
38289;BME280;24092;53.370;-6.588;2023-02-18T05:46:51;101063.07;;;4.10;100.00
38289;BME280;24092;53.370;-6.588;2023-02-18T05:49:18;101062.01;;;4.43;100.00
38289;BME280;24092;53.370;-6.588;2023-02-18T05:51:45;101062.01;;;4.25;100.00
38289;BME280;24092;53.370;-6.588;2023-02-18T05:54:12;101060.03;;;5.02;100.00
38289;BME280;24092;53.370;-6.588;2023-02-18T05:56:39;101061.60;;;4.12;100.00
38289;BME280;24092;53.370;-6.588;2023-02-18T05:59:06;101063.79;;;4.04;100.00
38289;BME280;24092;53.370;-6.588;2023-02-18T06:01:33;101062.83;;;4.04;100.00
38289;BME280;24092;53.370;-6.588;2023-02-18T06:04:00;101063.92;;;4.59;100.00
38289;BME280;24092;53.370;-6.588;2023-02-18T06:06:27;101071.59;;;4.60;100.00
38289;BME280;24092;53.370;-6.588;2023-02-18T06:08:54;101069.36;;;4.30;100.00
38289;BME280;24092;53.370;-6.588;2023-02-18T06:11:21;101059.42;;;4.44;100.00
38289;BME280;24092;53.370;-6.588;2023-02-18T06:13:48;101064.58;;;4.60;100.00
38289;BME280;24092;53.370;-6.588;2023-02-18T06:16:15;101064.95;;;4.87;100.00
38289;BME280;24092;53.370;-6.588;2023-02-18T06:18:42;101061.65;;;4.42;100.00
38289;BME280;24092;53.370;-6.588;2023-02-18T06:21:10;101059.98;;;4.61;100.00
38289;BME280;24092;53.370;-6.588;2023-02-18T06:23:36;101058.53;;;4.47;100.00
38289;BME280;24092;53.370;-6.588;2023-02-18T06:26:04;101053.52;;;4.51;100.00
38289;BME280;24092;53.370;-6.588;2023-02-18T06:28:30;101050.32;;;3.98;100.00
38289;BME280;24092;53.370;-6.588;2023-02-18T06:30:57;101052.17;;;4.13;100.00
38289;BME280;24092;53.370;-6.588;2023-02-18T06:33:25;101048.48;;;4.57;100.00
38289;BME280;24092;53.370;-6.588;2023-02-18T06:35:55;101045.19;;;4.13;100.00
38289;BME280;24092;53.370;-6.588;2023-02-18T06:38:22;101045.99;;;4.39;100.00
38289;BME280;24092;53.370;-6.588;2023-02-18T06:40:49;101049.59;;;4.80;100.00
38289;BME280;24092;53.370;-6.588;2023-02-18T06:43:17;101050.11;;;4.56;100.00
38289;BME280;24092;53.370;-6.588;2023-02-18T06:45:45;101058.60;;;4.87;100.00
38289;BME280;24092;53.370;-6.588;2023-02-18T06:48:13;101058.83;;;4.98;100.00
38289;BME280;24092;53.370;-6.588;2023-02-18T06:50:41;101060.37;;;5.05;100.00
38289;BME280;24092;53.370;-6.588;2023-02-18T06:53:08;101052.77;;;5.81;100.00
38289;BME280;24092;53.370;-6.588;2023-02-18T06:55:35;101055.10;;;5.88;100.00
38289;BME280;24092;53.370;-6.588;2023-02-18T06:58:03;101056.92;;;6.29;100.00
38289;BME280;24092;53.370;-6.588;2023-02-18T07:00:30;101061.42;;;7.01;100.00
38289;BME280;24092;53.370;-6.588;2023-02-18T07:02:57;101065.80;;;6.51;100.00
38289;BME280;24092;53.370;-6.588;2023-02-18T07:05:24;101061.48;;;6.85;100.00
38289;BME280;24092;53.370;-6.588;2023-02-18T07:07:51;101060.93;;;5.59;100.00
38289;BME280;24092;53.370;-6.588;2023-02-18T07:10:19;101069.05;;;4.94;100.00
38289;BME280;24092;53.370;-6.588;2023-02-18T07:12:46;101078.70;;;5.00;100.00
38289;BME280;24092;53.370;-6.588;2023-02-18T07:15:13;101087.49;;;5.24;100.00
38289;BME280;24092;53.370;-6.588;2023-02-18T07:17:41;101091.92;;;4.88;100.00
38289;BME280;24092;53.370;-6.588;2023-02-18T07:20:08;101100.16;;;5.19;100.00
38289;BME280;24092;53.370;-6.588;2023-02-18T07:22:35;101103.51;;;5.32;100.00
38289;BME280;24092;53.370;-6.588;2023-02-18T07:25:02;101099.74;;;4.36;100.00
38289;BME280;24092;53.370;-6.588;2023-02-18T07:27:29;101105.04;;;4.55;100.00
38289;BME280;24092;53.370;-6.588;2023-02-18T07:29:56;101107.57;;;4.99;100.00
38289;BME280;24092;53.370;-6.588;2023-02-18T07:32:23;101115.99;;;5.02;100.00
38289;BME280;24092;53.370;-6.588;2023-02-18T07:34:50;101111.51;;;5.08;100.00
38289;BME280;24092;53.370;-6.588;2023-02-18T07:37:17;101114.48;;;4.69;100.00
38289;BME280;24092;53.370;-6.588;2023-02-18T07:39:44;101120.65;;;4.05;100.00
38289;BME280;24092;53.370;-6.588;2023-02-18T07:42:12;101123.41;;;4.33;100.00
38289;BME280;24092;53.370;-6.588;2023-02-18T07:44:40;101126.05;;;4.05;100.00
38289;BME280;24092;53.370;-6.588;2023-02-18T07:47:09;101118.02;;;4.45;100.00
38289;BME280;24092;53.370;-6.588;2023-02-18T07:49:38;101119.52;;;3.74;100.00
38289;BME280;24092;53.370;-6.588;2023-02-18T07:52:05;101120.87;;;4.10;100.00
38289;BME280;24092;53.370;-6.588;2023-02-18T07:54:32;101125.56;;;4.21;100.00
38289;BME280;24092;53.370;-6.588;2023-02-18T07:56:59;101123.05;;;4.39;100.00
38289;BME280;24092;53.370;-6.588;2023-02-18T07:59:26;101131.25;;;4.45;100.00
38289;BME280;24092;53.370;-6.588;2023-02-18T08:01:53;101130.62;;;4.18;100.00
38289;BME280;24092;53.370;-6.588;2023-02-18T08:04:20;101136.14;;;4.85;100.00
38289;BME280;24092;53.370;-6.588;2023-02-18T08:06:49;101138.01;;;5.06;100.00
38289;BME280;24092;53.370;-6.588;2023-02-18T08:09:16;101136.67;;;4.95;100.00
38289;BME280;24092;53.370;-6.588;2023-02-18T08:11:44;101147.50;;;5.22;100.00
38289;BME280;24092;53.370;-6.588;2023-02-18T08:14:11;101152.87;;;4.83;100.00
38289;BME280;24092;53.370;-6.588;2023-02-18T08:16:38;101150.60;;;4.57;100.00
38289;BME280;24092;53.370;-6.588;2023-02-18T08:19:05;101160.85;;;3.97;100.00
38289;BME280;24092;53.370;-6.588;2023-02-18T08:21:32;101162.70;;;4.55;100.00
38289;BME280;24092;53.370;-6.588;2023-02-18T08:23:59;101158.33;;;4.53;100.00
38289;BME280;24092;53.370;-6.588;2023-02-18T08:26:26;101160.46;;;4.45;100.00
38289;BME280;24092;53.370;-6.588;2023-02-18T08:28:53;101153.16;;;4.14;100.00
38289;BME280;24092;53.370;-6.588;2023-02-18T08:31:22;101153.10;;;4.52;100.00
38289;BME280;24092;53.370;-6.588;2023-02-18T08:33:50;101163.66;;;3.95;100.00
38289;BME280;24092;53.370;-6.588;2023-02-18T08:36:18;101167.24;;;4.16;100.00
38289;BME280;24092;53.370;-6.588;2023-02-18T08:38:45;101168.56;;;4.79;100.00
38289;BME280;24092;53.370;-6.588;2023-02-18T08:41:12;101170.01;;;4.98;100.00
38289;BME280;24092;53.370;-6.588;2023-02-18T08:43:39;101170.18;;;4.77;100.00
38289;BME280;24092;53.370;-6.588;2023-02-18T08:46:06;101176.16;;;5.04;100.00
38289;BME280;24092;53.370;-6.588;2023-02-18T08:48:33;101181.55;;;4.36;100.00
38289;BME280;24092;53.370;-6.588;2023-02-18T08:51:10;101176.52;;;4.43;100.00
38289;BME280;24092;53.370;-6.588;2023-02-18T08:53:37;101182.51;;;4.43;100.00
38289;BME280;24092;53.370;-6.588;2023-02-18T08:56:05;101181.24;;;4.50;100.00
38289;BME280;24092;53.370;-6.588;2023-02-18T08:58:33;101181.47;;;3.64;100.00
38289;BME280;24092;53.370;-6.588;2023-02-18T09:01:03;101192.65;;;4.37;100.00
38289;BME280;24092;53.370;-6.588;2023-02-18T09:03:30;101193.17;;;4.38;100.00
38289;BME280;24092;53.370;-6.588;2023-02-18T09:05:58;101195.16;;;4.86;100.00
38289;BME280;24092;53.370;-6.588;2023-02-18T09:08:26;101191.04;;;4.79;100.00
38289;BME280;24092;53.370;-6.588;2023-02-18T09:10:55;101193.42;;;4.85;100.00
38289;BME280;24092;53.370;-6.588;2023-02-18T09:13:23;101195.84;;;5.16;100.00
38289;BME280;24092;53.370;-6.588;2023-02-18T09:16:00;101193.03;;;4.41;100.00
38289;BME280;24092;53.370;-6.588;2023-02-18T09:18:28;101191.10;;;5.22;100.00
38289;BME280;24092;53.370;-6.588;2023-02-18T09:20:56;101196.17;;;4.82;100.00
38289;BME280;24092;53.370;-6.588;2023-02-18T09:23:24;101198.27;;;4.75;100.00
38289;BME280;24092;53.370;-6.588;2023-02-18T09:25:52;101199.93;;;4.86;100.00
38289;BME280;24092;53.370;-6.588;2023-02-18T09:28:19;101193.12;;;4.83;100.00
38289;BME280;24092;53.370;-6.588;2023-02-18T09:30:46;101194.71;;;4.99;100.00
38289;BME280;24092;53.370;-6.588;2023-02-18T09:33:14;101200.65;;;4.40;100.00
38289;BME280;24092;53.370;-6.588;2023-02-18T09:35:43;101202.05;;;4.64;100.00
38289;BME280;24092;53.370;-6.588;2023-02-18T09:38:11;101204.80;;;4.54;100.00
38289;BME280;24092;53.370;-6.588;2023-02-18T09:40:43;101206.13;;;4.86;100.00
38289;BME280;24092;53.370;-6.588;2023-02-18T09:43:21;101206.11;;;4.63;100.00
38289;BME280;24092;53.370;-6.588;2023-02-18T09:45:51;101212.03;;;4.95;100.00
38289;BME280;24092;53.370;-6.588;2023-02-18T09:48:25;101208.36;;;5.13;100.00
38289;BME280;24092;53.370;-6.588;2023-02-18T09:50:53;101209.40;;;4.68;100.00
38289;BME280;24092;53.370;-6.588;2023-02-18T09:53:21;101209.94;;;4.93;100.00
38289;BME280;24092;53.370;-6.588;2023-02-18T09:55:50;101211.08;;;5.05;100.00
38289;BME280;24092;53.370;-6.588;2023-02-18T09:58:20;101212.22;;;5.37;100.00
38289;BME280;24092;53.370;-6.588;2023-02-18T10:00:51;101215.24;;;4.67;100.00
38289;BME280;24092;53.370;-6.588;2023-02-18T10:03:22;101216.23;;;4.95;100.00
38289;BME280;24092;53.370;-6.588;2023-02-18T10:05:55;101222.14;;;4.58;100.00
38289;BME280;24092;53.370;-6.588;2023-02-18T10:08:26;101219.64;;;4.84;100.00
38289;BME280;24092;53.370;-6.588;2023-02-18T10:10:54;101216.90;;;4.67;100.00
38289;BME280;24092;53.370;-6.588;2023-02-18T10:13:24;101220.11;;;5.13;100.00
38289;BME280;24092;53.370;-6.588;2023-02-18T10:15:52;101214.11;;;4.90;100.00
38289;BME280;24092;53.370;-6.588;2023-02-18T10:18:25;101217.35;;;5.26;100.00
38289;BME280;24092;53.370;-6.588;2023-02-18T10:20:58;101222.73;;;5.09;100.00
38289;BME280;24092;53.370;-6.588;2023-02-18T10:23:28;101225.33;;;4.66;100.00
38289;BME280;24092;53.370;-6.588;2023-02-18T10:25:57;101228.48;;;4.95;100.00
38289;BME280;24092;53.370;-6.588;2023-02-18T10:28:25;101226.14;;;4.94;100.00
38289;BME280;24092;53.370;-6.588;2023-02-18T10:30:57;101232.66;;;5.03;100.00
38289;BME280;24092;53.370;-6.588;2023-02-18T10:33:39;101233.49;;;4.57;100.00
38289;BME280;24092;53.370;-6.588;2023-02-18T10:36:20;101240.08;;;4.76;100.00
38289;BME280;24092;53.370;-6.588;2023-02-18T10:39:31;101234.23;;;5.64;100.00
38289;BME280;24092;53.370;-6.588;2023-02-18T10:42:10;101239.17;;;4.74;100.00
38289;BME280;24092;53.370;-6.588;2023-02-18T10:44:50;101240.70;;;4.92;100.00
38289;BME280;24092;53.370;-6.588;2023-02-18T10:47:30;101245.01;;;4.70;100.00
38289;BME280;24092;53.370;-6.588;2023-02-18T10:50:08;101246.62;;;5.15;100.00
38289;BME280;24092;53.370;-6.588;2023-02-18T10:52:40;101246.12;;;5.93;100.00
38289;BME280;24092;53.370;-6.588;2023-02-18T10:55:10;101246.53;;;5.95;100.00
38289;BME280;24092;53.370;-6.588;2023-02-18T10:57:46;101239.51;;;5.73;100.00
38289;BME280;24092;53.370;-6.588;2023-02-18T11:00:19;101241.92;;;5.76;100.00
38289;BME280;24092;53.370;-6.588;2023-02-18T11:03:01;101242.63;;;5.48;100.00
38289;BME280;24092;53.370;-6.588;2023-02-18T11:05:28;101247.77;;;5.57;100.00
38289;BME280;24092;53.370;-6.588;2023-02-18T11:07:57;101249.21;;;5.00;100.00
38289;BME280;24092;53.370;-6.588;2023-02-18T11:10:28;101239.57;;;5.04;100.00
38289;BME280;24092;53.370;-6.588;2023-02-18T11:12:58;101236.61;;;5.61;100.00
38289;BME280;24092;53.370;-6.588;2023-02-18T11:15:28;101239.82;;;5.54;100.00
38289;BME280;24092;53.370;-6.588;2023-02-18T11:17:57;101237.52;;;5.46;100.00
38289;BME280;24092;53.370;-6.588;2023-02-18T11:20:30;101241.61;;;5.55;100.00
38289;BME280;24092;53.370;-6.588;2023-02-18T11:22:59;101244.36;;;5.38;100.00
38289;BME280;24092;53.370;-6.588;2023-02-18T11:25:40;101242.51;;;5.54;100.00
38289;BME280;24092;53.370;-6.588;2023-02-18T11:28:28;101239.49;;;5.37;100.00
38289;BME280;24092;53.370;-6.588;2023-02-18T11:30:58;101236.13;;;5.69;100.00
38289;BME280;24092;53.370;-6.588;2023-02-18T11:33:32;101235.44;;;5.45;100.00
38289;BME280;24092;53.370;-6.588;2023-02-18T11:36:04;101234.91;;;5.85;100.00
38289;BME280;24092;53.370;-6.588;2023-02-18T11:38:35;101230.72;;;6.34;100.00
38289;BME280;24092;53.370;-6.588;2023-02-18T11:41:06;101233.18;;;6.02;100.00
38289;BME280;24092;53.370;-6.588;2023-02-18T11:43:35;101236.56;;;5.05;100.00
38289;BME280;24092;53.370;-6.588;2023-02-18T11:46:12;101231.18;;;5.13;100.00
38289;BME280;24092;53.370;-6.588;2023-02-18T11:48:40;101236.24;;;5.47;100.00
38289;BME280;24092;53.370;-6.588;2023-02-18T11:51:15;101238.65;;;5.13;100.00
38289;BME280;24092;53.370;-6.588;2023-02-18T11:53:56;101236.43;;;5.31;100.00
38289;BME280;24092;53.370;-6.588;2023-02-18T11:56:26;101239.30;;;5.04;100.00
38289;BME280;24092;53.370;-6.588;2023-02-18T11:58:53;101240.13;;;4.96;100.00
38289;BME280;24092;53.370;-6.588;2023-02-18T12:01:28;101242.22;;;4.80;100.00
38289;BME280;24092;53.370;-6.588;2023-02-18T12:04:00;101249.09;;;5.46;100.00
38289;BME280;24092;53.370;-6.588;2023-02-18T12:06:32;101242.02;;;5.25;100.00
38289;BME280;24092;53.370;-6.588;2023-02-18T12:09:05;101239.31;;;5.37;100.00
38289;BME280;24092;53.370;-6.588;2023-02-18T12:11:36;101234.48;;;4.94;100.00
38289;BME280;24092;53.370;-6.588;2023-02-18T12:14:11;101242.83;;;4.92;100.00
38289;BME280;24092;53.370;-6.588;2023-02-18T12:16:47;101247.32;;;4.45;100.00
38289;BME280;24092;53.370;-6.588;2023-02-18T12:19:33;101249.64;;;4.81;100.00
38289;BME280;24092;53.370;-6.588;2023-02-18T12:22:09;101257.64;;;4.42;100.00
38289;BME280;24092;53.370;-6.588;2023-02-18T12:24:47;101269.54;;;4.21;100.00
38289;BME280;24092;53.370;-6.588;2023-02-18T12:27:22;101276.00;;;4.22;100.00
38289;BME280;24092;53.370;-6.588;2023-02-18T12:30:04;101271.90;;;4.63;100.00
38289;BME280;24092;53.370;-6.588;2023-02-18T12:32:42;101247.81;;;4.65;100.00
38289;BME280;24092;53.370;-6.588;2023-02-18T12:35:27;101252.24;;;4.37;100.00
38289;BME280;24092;53.370;-6.588;2023-02-18T12:38:11;101252.48;;;4.94;100.00
38289;BME280;24092;53.370;-6.588;2023-02-18T12:40:53;101240.61;;;4.99;100.00
38289;BME280;24092;53.370;-6.588;2023-02-18T12:46:56;101235.97;;;5.43;100.00
38289;BME280;24092;53.370;-6.588;2023-02-18T12:49:47;101233.37;;;5.12;100.00
38289;BME280;24092;53.370;-6.588;2023-02-18T12:52:25;101216.42;;;4.81;100.00
38289;BME280;24092;53.370;-6.588;2023-02-18T12:55:20;101215.26;;;5.16;100.00
38289;BME280;24092;53.370;-6.588;2023-02-18T12:57:57;101213.78;;;5.92;100.00
38289;BME280;24092;53.370;-6.588;2023-02-18T13:00:47;101208.06;;;5.55;100.00
38289;BME280;24092;53.370;-6.588;2023-02-18T13:03:43;101207.38;;;5.51;100.00